createdAt,value
2019-01-29T00:01:15.263Z,3.40
2019-01-29T00:03:42.207Z,3.05
2019-01-29T00:06:09.139Z,3.67
2019-01-29T00:08:36.043Z,3.30
2019-01-29T00:11:03.539Z,3.43
2019-01-29T00:13:30.656Z,3.50
2019-01-29T00:15:57.648Z,3.37
2019-01-29T00:18:24.575Z,2.97
2019-01-29T00:20:51.499Z,3.93
2019-01-29T00:23:18.387Z,2.70
2019-01-29T00:25:45.502Z,3.80
2019-01-29T00:28:12.737Z,4.13
2019-01-29T00:30:39.640Z,4.20
2019-01-29T00:33:06.574Z,4.73
2019-01-29T00:35:33.748Z,3.97
2019-01-29T00:38:00.754Z,3.83
2019-01-29T00:40:27.641Z,4.10
2019-01-29T00:42:54.575Z,4.13
2019-01-29T00:45:21.508Z,3.90
2019-01-29T00:47:48.449Z,4.07
2019-01-29T00:50:15.354Z,4.00
2019-01-29T00:52:42.516Z,4.20
2019-01-29T00:55:10.581Z,3.57
2019-01-29T00:57:37.511Z,4.10
2019-01-29T01:00:08.684Z,3.83
2019-01-29T01:02:35.645Z,4.63
2019-01-29T01:05:03.673Z,4.00
2019-01-29T01:07:30.614Z,4.07
2019-01-29T01:09:57.610Z,5.10
2019-01-29T01:12:24.555Z,3.90
2019-01-29T01:14:51.496Z,4.63
2019-01-29T01:17:18.508Z,4.00
2019-01-29T01:19:45.405Z,3.37
2019-01-29T01:22:12.375Z,5.30
2019-01-29T01:24:39.275Z,4.67
2019-01-29T01:27:06.216Z,4.57
2019-01-29T01:29:33.183Z,4.40
2019-01-29T01:32:00.193Z,4.20
2019-01-29T01:34:27.413Z,4.00
2019-01-29T01:36:54.380Z,4.93
2019-01-29T01:39:21.318Z,4.37
2019-01-29T01:41:48.222Z,4.50
2019-01-29T01:44:15.670Z,4.60
2019-01-29T01:46:42.573Z,4.70
2019-01-29T01:49:09.931Z,4.60
2019-01-29T01:51:36.927Z,4.70
2019-01-29T01:54:04.406Z,6.17
2019-01-29T01:56:31.320Z,4.85
2019-01-29T01:58:58.264Z,4.30
2019-01-29T02:01:25.221Z,4.90
2019-01-29T02:03:52.138Z,4.57
2019-01-29T02:06:19.048Z,4.40
2019-01-29T02:08:45.978Z,4.97
2019-01-29T02:11:12.917Z,5.10
2019-01-29T02:13:39.867Z,5.10
2019-01-29T02:16:06.852Z,4.87
2019-01-29T02:18:33.902Z,4.50
2019-01-29T02:21:00.830Z,5.05
2019-01-29T02:23:27.730Z,4.60
2019-01-29T02:25:54.701Z,4.80
2019-01-29T02:28:21.605Z,5.40
2019-01-29T02:30:48.526Z,5.27
2019-01-29T02:33:15.498Z,4.30
2019-01-29T02:35:42.458Z,4.67
2019-01-29T02:38:09.399Z,5.50
2019-01-29T02:40:36.344Z,3.80
2019-01-29T02:43:03.260Z,4.27
2019-01-29T02:45:30.222Z,4.75
2019-01-29T02:47:57.135Z,5.10
2019-01-29T02:50:24.169Z,3.83
2019-01-29T02:52:51.086Z,4.10
2019-01-29T02:55:17.994Z,4.70
2019-01-29T02:57:44.869Z,3.60
2019-01-29T03:00:15.362Z,5.10
2019-01-29T03:02:42.233Z,4.83
2019-01-29T03:05:10.421Z,5.03
2019-01-29T03:07:37.324Z,4.23
2019-01-29T03:10:06.531Z,4.60
2019-01-29T03:12:33.464Z,4.57
2019-01-29T03:15:00.413Z,4.35
2019-01-29T03:17:27.308Z,4.45
2019-01-29T03:19:54.305Z,4.10
2019-01-29T03:22:21.186Z,4.93
2019-01-29T03:24:48.136Z,4.00
2019-01-29T03:27:15.185Z,4.97
2019-01-29T03:29:42.128Z,5.00
2019-01-29T03:32:09.036Z,4.25
2019-01-29T03:34:35.991Z,4.30
2019-01-29T03:37:03.011Z,4.37
2019-01-29T03:39:29.902Z,3.67
2019-01-29T03:41:56.950Z,5.60
2019-01-29T03:44:23.875Z,5.10
2019-01-29T03:46:50.797Z,4.70
2019-01-29T03:49:17.695Z,4.63
2019-01-29T03:51:44.646Z,4.70
2019-01-29T03:54:11.567Z,5.07
2019-01-29T03:56:38.528Z,5.35
2019-01-29T03:59:05.440Z,4.65
2019-01-29T04:01:32.377Z,4.63
2019-01-29T04:03:59.269Z,4.40
2019-01-29T04:06:26.212Z,4.30
2019-01-29T04:08:53.163Z,4.73
2019-01-29T04:11:20.118Z,4.30
2019-01-29T04:13:47.054Z,4.90
2019-01-29T04:16:13.965Z,4.77
2019-01-29T04:18:40.878Z,3.57
2019-01-29T04:21:07.811Z,4.43
2019-01-29T04:23:34.705Z,4.53
2019-01-29T04:26:01.671Z,4.87
2019-01-29T04:28:28.571Z,5.40
2019-01-29T04:30:55.496Z,4.87
2019-01-29T04:33:22.380Z,5.40
2019-01-29T04:35:49.323Z,5.80
2019-01-29T04:38:16.389Z,6.20
2019-01-29T04:40:43.653Z,6.00
2019-01-29T04:43:13.022Z,6.80
2019-01-29T04:45:39.967Z,6.80
2019-01-29T04:48:07.085Z,7.80
2019-01-29T04:50:34.309Z,7.40
2019-01-29T04:53:01.243Z,7.63
2019-01-29T04:55:28.164Z,8.93
2019-01-29T04:57:55.156Z,8.20
2019-01-29T05:00:24.122Z,8.60
2019-01-29T05:02:51.066Z,9.23
2019-01-29T05:05:18.530Z,9.57
2019-01-29T05:07:45.486Z,9.70
2019-01-29T05:10:13.577Z,9.75
2019-01-29T05:12:40.517Z,10.23
2019-01-29T05:15:09.639Z,9.53
2019-01-29T05:17:36.611Z,10.10
2019-01-29T05:20:04.593Z,11.83
2019-01-29T05:22:31.535Z,11.77
2019-01-29T05:24:58.445Z,11.00
2019-01-29T05:27:25.382Z,10.67
2019-01-29T05:29:52.271Z,10.93
2019-01-29T05:32:19.201Z,11.93
2019-01-29T05:34:46.092Z,11.20
2019-01-29T05:37:13.054Z,11.70
2019-01-29T05:39:39.984Z,11.27
2019-01-29T05:42:06.990Z,10.90
2019-01-29T05:44:33.902Z,11.97
2019-01-29T05:47:00.830Z,11.10
2019-01-29T05:49:27.854Z,10.67
2019-01-29T05:51:54.821Z,11.73
2019-01-29T05:54:21.798Z,11.17
2019-01-29T05:56:48.754Z,10.07
2019-01-29T05:59:15.714Z,11.30
2019-01-29T06:01:42.615Z,10.55
2019-01-29T06:04:09.550Z,11.37
2019-01-29T06:06:36.467Z,11.77
2019-01-29T06:09:06.955Z,11.10
2019-01-29T06:11:33.914Z,12.00
2019-01-29T06:14:00.845Z,11.20
2019-01-29T06:16:27.758Z,12.50
2019-01-29T06:18:54.697Z,12.37
2019-01-29T06:21:21.618Z,12.57
2019-01-29T06:23:48.550Z,10.80
2019-01-29T06:26:15.466Z,12.00
2019-01-29T06:28:42.395Z,11.33
2019-01-29T06:31:09.337Z,11.20
2019-01-29T06:33:36.280Z,13.17
2019-01-29T06:36:03.406Z,11.27
2019-01-29T06:38:30.383Z,12.40
2019-01-29T06:40:57.257Z,12.00
2019-01-29T06:43:24.206Z,12.25
2019-01-29T06:45:51.210Z,12.80
2019-01-29T06:48:18.179Z,13.73
2019-01-29T06:50:45.096Z,13.57
2019-01-29T06:53:12.246Z,12.90
2019-01-29T06:55:39.203Z,14.17
2019-01-29T06:58:06.154Z,14.70
2019-01-29T07:00:33.175Z,16.30
2019-01-29T07:03:01.123Z,15.80
2019-01-29T07:05:28.163Z,16.30
2019-01-29T07:07:55.082Z,16.10
2019-01-29T07:10:22.297Z,15.70
2019-01-29T07:12:49.243Z,16.40
2019-01-29T07:15:36.880Z,16.83
2019-01-29T07:18:09.987Z,15.23
2019-01-29T07:20:36.889Z,17.13
2019-01-29T07:23:03.945Z,14.37
2019-01-29T07:25:30.894Z,17.30
2019-01-29T07:27:57.792Z,17.43
2019-01-29T07:30:24.747Z,17.20
2019-01-29T07:32:51.651Z,17.53
2019-01-29T07:35:18.637Z,18.60
2019-01-29T07:37:45.672Z,18.07
2019-01-29T07:40:12.762Z,17.50
2019-01-29T07:42:39.645Z,19.07
2019-01-29T07:45:07.165Z,16.60
2019-01-29T07:47:34.113Z,18.47
2019-01-29T07:50:01.069Z,17.50
2019-01-29T07:52:28.003Z,16.87
2019-01-29T07:54:55.034Z,17.10
2019-01-29T07:57:22.008Z,17.37
2019-01-29T07:59:49.110Z,19.75
2019-01-29T08:02:16.080Z,17.55
2019-01-29T08:04:43.214Z,18.20
2019-01-29T08:07:10.262Z,17.80
2019-01-29T08:09:37.296Z,18.40
2019-01-29T08:12:04.212Z,17.27
2019-01-29T08:14:31.435Z,18.50
2019-01-29T08:16:58.528Z,16.30
2019-01-29T08:19:25.628Z,16.70
2019-01-29T08:21:52.581Z,17.85
2019-01-29T08:24:19.610Z,17.33
2019-01-29T08:26:46.530Z,19.63
2019-01-29T08:29:13.828Z,17.23
2019-01-29T08:31:40.818Z,17.97
2019-01-29T08:34:07.782Z,18.60
2019-01-29T08:36:34.850Z,18.90
2019-01-29T08:39:03.696Z,18.63
2019-01-29T08:41:30.652Z,18.95
2019-01-29T08:43:57.881Z,19.83
2019-01-29T08:46:24.956Z,18.47
2019-01-29T08:48:51.884Z,21.30
2019-01-29T08:51:18.972Z,21.07
2019-01-29T08:53:45.936Z,20.10
2019-01-29T08:56:13.082Z,20.17
2019-01-29T08:58:40.067Z,19.10
2019-01-29T09:01:08.783Z,19.83
2019-01-29T09:03:35.892Z,20.50
2019-01-29T09:06:02.938Z,19.30
2019-01-29T09:08:29.865Z,19.30
2019-01-29T09:10:56.894Z,19.43
2019-01-29T09:13:23.932Z,18.00
2019-01-29T09:15:50.920Z,19.35
2019-01-29T09:18:17.857Z,18.20
2019-01-29T09:20:44.820Z,19.93
2019-01-29T09:23:11.747Z,20.10
2019-01-29T09:25:38.725Z,20.60
2019-01-29T09:28:05.647Z,19.87
2019-01-29T09:30:32.589Z,21.80
2019-01-29T09:32:59.522Z,20.80
2019-01-29T09:35:26.467Z,21.30
2019-01-29T09:37:53.460Z,21.85
2019-01-29T09:40:20.374Z,21.80
2019-01-29T09:42:47.340Z,21.47
2019-01-29T09:45:15.960Z,22.20
2019-01-29T09:47:43.044Z,22.85
2019-01-29T09:50:11.779Z,23.13
2019-01-29T09:52:38.745Z,22.43
2019-01-29T09:55:08.076Z,24.40
2019-01-29T09:57:35.059Z,25.20
2019-01-29T10:00:02.563Z,24.80
2019-01-29T10:02:29.538Z,25.53
2019-01-29T10:04:56.471Z,23.47
2019-01-29T10:07:23.428Z,25.97
2019-01-29T10:09:50.385Z,27.00
2019-01-29T10:12:17.358Z,26.13
2019-01-29T10:14:44.301Z,25.40
2019-01-29T10:17:11.834Z,28.10
2019-01-29T10:19:38.754Z,28.05
2019-01-29T10:24:37.987Z,27.63
2019-01-29T10:27:04.931Z,27.00
2019-01-29T10:29:32.220Z,29.17
2019-01-29T10:31:59.166Z,27.60
2019-01-29T10:34:26.143Z,27.43
2019-01-29T10:36:53.072Z,28.00
2019-01-29T10:39:20.169Z,25.73
2019-01-29T10:41:47.117Z,27.63
2019-01-29T10:44:14.089Z,25.30
2019-01-29T10:46:41.053Z,25.07
2019-01-29T10:49:07.969Z,23.80
2019-01-29T10:51:34.908Z,25.33
2019-01-29T10:54:01.831Z,25.90
2019-01-29T10:56:28.847Z,24.80
2019-01-29T10:58:55.899Z,24.07
2019-01-29T11:01:23.017Z,24.50
2019-01-29T11:03:49.927Z,24.60
2019-01-29T11:06:16.843Z,24.00
2019-01-29T11:08:43.797Z,24.37
2019-01-29T11:11:10.739Z,21.33
2019-01-29T11:13:37.686Z,22.90
2019-01-29T11:16:04.719Z,21.67
2019-01-29T11:18:31.780Z,20.43
2019-01-29T11:20:58.761Z,20.77
2019-01-29T11:23:25.710Z,21.50
2019-01-29T11:25:55.966Z,22.90
2019-01-29T11:28:21.613Z,22.40
2019-01-29T11:30:48.584Z,20.77
2019-01-29T11:33:15.627Z,20.20
2019-01-29T11:35:42.529Z,21.60
2019-01-29T11:38:09.473Z,21.47
2019-01-29T11:40:36.381Z,21.40
2019-01-29T11:43:04.325Z,21.87
2019-01-29T11:45:34.110Z,23.37
2019-01-29T11:48:01.115Z,21.60
2019-01-29T11:50:28.300Z,19.90
2019-01-29T11:52:55.286Z,21.33
2019-01-29T11:55:22.215Z,19.83
2019-01-29T11:57:49.229Z,20.67
2019-01-29T12:00:23.479Z,21.07
2019-01-29T12:02:50.454Z,19.90
2019-01-29T12:05:17.547Z,18.47
2019-01-29T12:07:44.549Z,19.87
2019-01-29T12:10:12.905Z,19.60
2019-01-29T12:12:39.833Z,19.30
2019-01-29T12:15:08.767Z,19.17
2019-01-29T12:17:35.680Z,18.13
2019-01-29T12:20:03.971Z,19.50
2019-01-29T12:22:30.965Z,18.60
2019-01-29T12:24:57.931Z,17.47
2019-01-29T12:27:24.857Z,18.30
2019-01-29T12:29:51.808Z,18.63
2019-01-29T12:32:18.726Z,17.80
2019-01-29T12:34:45.667Z,17.10
2019-01-29T12:37:12.633Z,18.50
2019-01-29T12:39:40.423Z,17.50
2019-01-29T12:42:07.417Z,17.50
2019-01-29T12:44:34.398Z,18.50
2019-01-29T12:47:01.471Z,17.67
2019-01-29T12:49:28.481Z,16.30
2019-01-29T12:52:02.040Z,17.70
2019-01-29T12:54:29.019Z,17.47
2019-01-29T12:56:55.997Z,17.30
2019-01-29T12:59:22.971Z,17.00
2019-01-29T13:01:49.914Z,16.97
2019-01-29T13:04:17.028Z,16.30
2019-01-29T13:06:44.566Z,16.10
2019-01-29T13:09:11.574Z,16.33
2019-01-29T13:11:38.538Z,13.63
2019-01-29T13:14:05.561Z,12.60
2019-01-29T13:16:32.501Z,13.13
2019-01-29T13:18:59.550Z,12.70
2019-01-29T13:21:26.509Z,12.90
2019-01-29T13:23:53.510Z,13.27
2019-01-29T13:26:20.508Z,13.37
2019-01-29T13:28:47.437Z,12.60
2019-01-29T13:31:14.645Z,13.37
2019-01-29T13:33:41.559Z,13.80
2019-01-29T13:36:08.557Z,13.50
2019-01-29T13:38:35.540Z,13.60
2019-01-29T13:41:02.882Z,12.93
2019-01-29T13:43:29.811Z,13.90
2019-01-29T13:45:56.823Z,11.50
2019-01-29T13:48:23.739Z,13.00
2019-01-29T13:50:54.537Z,11.87
2019-01-29T13:53:21.547Z,12.53
2019-01-29T13:55:48.532Z,13.77
2019-01-29T13:58:15.493Z,12.67
2019-01-29T14:00:42.485Z,11.35
2019-01-29T14:03:10.753Z,11.60
2019-01-29T14:05:38.287Z,12.40
2019-01-29T14:08:05.745Z,11.67
2019-01-29T14:10:33.196Z,8.93
2019-01-29T14:13:00.113Z,7.60
2019-01-29T14:15:59.004Z,8.05
2019-01-29T14:18:28.449Z,8.73
2019-01-29T14:20:56.144Z,9.37
2019-01-29T14:23:23.516Z,8.63
2019-01-29T14:25:50.589Z,9.20
2019-01-29T14:28:17.541Z,8.57
2019-01-29T14:30:44.539Z,9.10
2019-01-29T14:33:11.556Z,8.93
2019-01-29T14:35:38.556Z,9.30
2019-01-29T14:38:44.875Z,8.90
2019-01-29T14:41:12.275Z,9.10
2019-01-29T14:43:40.592Z,9.90
2019-01-29T14:46:07.716Z,9.47
2019-01-29T14:48:34.661Z,9.57
2019-01-29T14:51:01.735Z,9.87
2019-01-29T14:53:28.655Z,11.40
2019-01-29T14:55:55.589Z,9.87
2019-01-29T14:58:23.030Z,10.80
2019-01-29T15:00:49.992Z,10.70
2019-01-29T15:03:16.911Z,10.80
2019-01-29T15:05:43.852Z,11.00
2019-01-29T15:08:10.896Z,11.80
2019-01-29T15:10:38.035Z,11.57
2019-01-29T15:13:04.952Z,10.20
2019-01-29T15:15:34.551Z,9.80
2019-01-29T15:18:11.171Z,9.50
2019-01-29T15:20:38.077Z,9.97
2019-01-29T15:23:04.998Z,10.30
2019-01-29T15:25:31.937Z,8.97
2019-01-29T15:27:58.880Z,7.77
2019-01-29T15:30:28.002Z,8.07
2019-01-29T15:32:55.137Z,7.40
2019-01-29T15:35:22.163Z,6.67
2019-01-29T15:37:49.197Z,6.77
2019-01-29T15:40:16.366Z,7.90
2019-01-29T15:42:43.327Z,7.43
2019-01-29T15:45:13.908Z,7.60
2019-01-29T15:47:40.854Z,8.67
2019-01-29T15:50:10.241Z,7.40
2019-01-29T15:52:37.232Z,7.60
2019-01-29T15:55:06.180Z,7.17
2019-01-29T15:57:33.181Z,7.93
2019-01-29T16:00:00.195Z,7.13
2019-01-29T16:02:27.144Z,5.53
2019-01-29T16:04:54.055Z,7.15
2019-01-29T16:07:21.078Z,6.33
2019-01-29T16:09:48.126Z,7.00
2019-01-29T16:12:15.051Z,6.97
2019-01-29T16:14:41.953Z,6.63
2019-01-29T16:17:08.967Z,5.70
2019-01-29T16:19:35.870Z,5.83
2019-01-29T16:22:02.922Z,7.23
2019-01-29T16:24:29.876Z,6.07
2019-01-29T16:26:56.819Z,4.40
2019-01-29T16:29:23.755Z,4.80
2019-01-29T16:31:50.702Z,5.03
2019-01-29T16:34:17.611Z,4.60
2019-01-29T16:36:44.594Z,5.43
2019-01-29T16:39:11.502Z,6.50
2019-01-29T16:41:38.427Z,7.03
2019-01-29T16:44:05.467Z,6.83
2019-01-29T16:46:32.410Z,5.40
2019-01-29T16:48:59.336Z,5.87
2019-01-29T16:51:26.339Z,5.57
2019-01-29T16:53:53.241Z,5.20
2019-01-29T16:56:20.160Z,5.60
2019-01-29T16:58:47.113Z,4.27
2019-01-29T17:01:14.156Z,5.23
2019-01-29T17:03:41.118Z,5.40
2019-01-29T17:06:08.031Z,4.57
2019-01-29T17:08:35.333Z,4.47
2019-01-29T17:11:02.309Z,4.50
2019-01-29T17:13:29.459Z,4.30
2019-01-29T17:15:56.577Z,4.07
2019-01-29T17:18:23.828Z,3.65
2019-01-29T17:20:51.077Z,5.00
2019-01-29T17:23:18.417Z,4.93
2019-01-29T17:25:45.330Z,5.30
2019-01-29T17:28:12.299Z,6.43
2019-01-29T17:30:41.717Z,6.53
2019-01-29T17:33:09.997Z,6.60
2019-01-29T17:35:38.507Z,7.70
2019-01-29T17:38:06.020Z,6.17
2019-01-29T17:40:32.943Z,7.00
2019-01-29T17:42:59.916Z,5.90
2019-01-29T17:45:29.309Z,6.00
2019-01-29T17:47:56.274Z,5.87
2019-01-29T17:50:25.741Z,4.50
2019-01-29T17:52:52.708Z,5.90
2019-01-29T17:55:19.743Z,6.13
2019-01-29T17:57:50.797Z,4.97
2019-01-29T18:00:18.033Z,5.00
2019-01-29T18:02:45.031Z,5.37
2019-01-29T18:05:12.254Z,5.00
2019-01-29T18:07:39.237Z,5.00
2019-01-29T18:10:07.412Z,4.97
2019-01-29T18:12:34.334Z,6.50
2019-01-29T18:15:01.587Z,5.60
2019-01-29T18:17:28.545Z,5.10
2019-01-29T18:19:55.603Z,5.00
2019-01-29T18:22:22.539Z,6.37
2019-01-29T18:24:49.530Z,6.30
2019-01-29T18:27:16.713Z,7.67
2019-01-29T18:29:43.763Z,5.70
2019-01-29T18:32:11.039Z,5.97
2019-01-29T18:34:38.329Z,7.30
2019-01-29T18:37:05.464Z,6.55
2019-01-29T18:39:32.621Z,8.03
2019-01-29T18:41:59.590Z,7.13
2019-01-29T18:44:26.603Z,8.37
2019-01-29T18:46:53.791Z,8.63
2019-01-29T18:49:21.031Z,11.85
2019-01-29T18:51:48.199Z,8.90
2019-01-29T18:54:15.852Z,12.97
2019-01-29T18:56:42.929Z,8.80
2019-01-29T18:59:09.934Z,8.77
2019-01-29T19:01:37.359Z,7.30
2019-01-29T19:04:04.858Z,8.07
2019-01-29T19:06:32.507Z,6.60
2019-01-29T19:09:00.173Z,6.63
2019-01-29T19:11:27.273Z,9.40
2019-01-29T19:13:54.611Z,12.20
2019-01-29T19:16:21.691Z,10.47
2019-01-29T19:18:49.122Z,11.25
2019-01-29T19:21:16.129Z,9.43
2019-01-29T19:23:43.057Z,6.83
2019-01-29T19:26:10.147Z,9.00
2019-01-29T19:28:37.196Z,12.80
2019-01-29T19:31:04.968Z,14.30
2019-01-29T19:33:32.009Z,13.93
2019-01-29T19:35:59.017Z,12.43
2019-01-29T19:38:25.916Z,13.43
2019-01-29T19:40:53.203Z,14.03
2019-01-29T19:43:20.552Z,10.03
2019-01-29T19:45:47.965Z,8.47
2019-01-29T19:48:15.256Z,5.65
2019-01-29T19:50:42.210Z,7.33
2019-01-29T19:53:09.396Z,5.53
2019-01-29T19:55:36.578Z,6.13
2019-01-29T19:58:09.227Z,10.43
2019-01-29T20:00:40.065Z,9.17
2019-01-29T20:03:07.283Z,9.43
2019-01-29T20:05:34.345Z,9.90
2019-01-29T20:08:01.417Z,7.37
2019-01-29T20:10:28.458Z,6.47
2019-01-29T20:12:55.462Z,5.40
2019-01-29T20:15:23.292Z,4.70
2019-01-29T20:17:51.647Z,5.40
2019-01-29T20:20:22.529Z,4.90
2019-01-29T20:22:50.256Z,5.60
2019-01-29T20:25:17.238Z,5.10
2019-01-29T20:27:44.315Z,5.37
2019-01-29T20:30:17.062Z,4.53
2019-01-29T20:32:53.124Z,6.00
2019-01-29T20:35:13.393Z,5.67
2019-01-29T20:37:40.468Z,6.10
2019-01-29T20:40:09.856Z,5.57
2019-01-29T20:42:37.059Z,6.00
2019-01-29T20:45:04.998Z,5.20
2019-01-29T20:47:31.980Z,5.20
2019-01-29T20:49:59.161Z,4.50
2019-01-29T20:52:26.909Z,4.87
2019-01-29T20:54:54.042Z,5.13
2019-01-29T20:57:21.015Z,5.50
2019-01-29T20:59:48.233Z,5.33
2019-01-29T21:02:15.275Z,5.93
2019-01-29T21:04:42.213Z,5.55
2019-01-29T21:07:09.192Z,5.80
2019-01-29T21:35:50.610Z,7.00
2019-01-29T21:38:18.294Z,7.27
2019-01-29T21:40:45.205Z,6.23
2019-01-29T21:43:12.191Z,7.37
2019-01-29T21:45:39.169Z,8.27
2019-01-29T21:50:48.093Z,7.33
2019-01-29T21:53:15.057Z,8.47
2019-01-29T21:55:42.032Z,7.60
2019-01-29T22:03:32.979Z,8.40
2019-01-29T22:05:59.904Z,7.07
2019-01-29T22:08:26.898Z,7.87
2019-01-29T22:10:54.048Z,7.60
2019-01-29T22:13:20.984Z,8.90
2019-01-29T22:15:47.925Z,8.40
2019-01-29T22:18:14.867Z,11.37
2019-01-29T22:20:41.805Z,10.30
2019-01-29T22:23:08.766Z,10.27
2019-01-29T22:25:35.991Z,10.40
2019-01-29T22:28:04.584Z,11.60
2019-01-29T22:30:33.987Z,9.70
2019-01-29T22:33:00.988Z,12.30
2019-01-29T22:35:27.923Z,11.17
2019-01-29T22:37:54.892Z,11.30
2019-01-29T22:40:22.832Z,12.17
2019-01-29T22:42:49.860Z,12.63
2019-01-29T22:45:16.852Z,11.50
2019-01-29T22:47:43.980Z,11.73
2019-01-29T22:50:22.589Z,11.60
2019-01-29T22:52:49.650Z,10.90
2019-01-29T22:55:16.541Z,11.40
2019-01-29T22:57:43.479Z,12.20
2019-01-29T23:00:32.526Z,12.37
2019-01-29T23:02:59.516Z,11.93
2019-01-29T23:05:26.434Z,12.53
2019-01-29T23:07:53.375Z,14.00
2019-01-29T23:10:20.423Z,12.40
2019-01-29T23:12:47.323Z,12.20
2019-01-29T23:15:15.771Z,11.07
2019-01-29T23:55:17.518Z,10.50
2019-01-29T23:57:45.809Z,9.40
